Time;durP1;ratioP1;P1;durP2;ratioP2;P2;SDS_P1;SDS_P2;PMS_P1;PMS_P2;Temp;Humidity;BMP_temperature;BMP_pressure;BME280_temperature;BME280_humidity;BME280_pressure;Samples;Min_cycle;Max_cycle;Signal;HPM_P1;HPM_P2
2023/06/19 00:00:32;;;;;;;16.10;15.00;;;19.40;1.00;;;;;;4990430;28;20857;-75
2023/06/19 00:02:59;;;;;;;17.60;16.30;;;19.40;1.00;;;;;;4993007;28;20550;-75
2023/06/19 00:05:26;;;;;;;16.67;15.33;;;19.40;1.00;;;;;;4991271;28;20564;-76
2023/06/19 00:07:53;;;;;;;18.03;16.63;;;19.40;1.00;;;;;;4993440;28;20541;-75
2023/06/19 00:10:21;;;;;;;16.77;15.47;;;19.40;1.00;;;;;;4990716;28;20866;-76
2023/06/19 00:12:49;;;;;;;16.40;15.07;;;19.40;1.00;;;;;;4990951;28;20613;-76
2023/06/19 00:15:16;;;;;;;16.97;15.70;;;19.30;1.00;;;;;;4986141;28;20475;-74
2023/06/19 00:17:43;;;;;;;17.40;16.07;;;19.30;1.00;;;;;;4993950;28;20490;-75
2023/06/19 00:20:10;;;;;;;17.77;16.37;;;19.30;1.00;;;;;;4991555;28;21344;-75
2023/06/19 00:22:37;;;;;;;16.93;15.73;;;19.30;1.00;;;;;;4992858;28;20573;-74
2023/06/19 00:25:05;;;;;;;16.77;15.37;;;19.20;1.00;;;;;;4991760;28;20909;-74
2023/06/19 00:27:33;;;;;;;18.40;16.90;;;19.20;1.00;;;;;;4989528;28;20940;-76
2023/06/19 00:30:02;;;;;;;17.23;16.03;;;19.20;1.00;;;;;;4993049;28;20559;-74
2023/06/19 00:32:29;;;;;;;17.37;16.07;;;19.20;1.00;;;;;;4996217;28;20478;-75
2023/06/19 00:34:56;;;;;;;16.73;15.47;;;19.20;1.00;;;;;;4993177;28;20489;-75
2023/06/19 00:37:23;;;;;;;17.70;16.50;;;19.20;1.00;;;;;;4990450;28;20459;-75
2023/06/19 00:39:50;;;;;;;18.10;16.70;;;19.30;1.00;;;;;;4992669;28;20482;-75
2023/06/19 00:42:17;;;;;;;17.53;16.30;;;19.30;1.00;;;;;;4992086;28;20457;-75
2023/06/19 00:44:45;;;;;;;17.80;16.47;;;19.30;1.00;;;;;;4997259;28;20455;-75
2023/06/19 00:47:12;;;;;;;17.00;15.80;;;19.40;1.00;;;;;;4980073;28;20916;-76
2023/06/19 00:49:39;;;;;;;17.37;16.17;;;19.40;1.00;;;;;;4979217;28;20463;-75
2023/06/19 00:52:07;;;;;;;17.73;16.43;;;19.40;1.00;;;;;;4978248;28;20466;-75
2023/06/19 00:54:35;;;;;;;18.50;17.10;;;19.40;1.00;;;;;;4979635;28;20500;-75
2023/06/19 00:57:02;;;;;;;16.03;14.93;;;19.50;1.00;;;;;;4979418;28;21634;-74
2023/06/19 00:59:29;;;;;;;18.60;16.90;;;19.50;1.00;;;;;;4988697;28;20465;-76
2023/06/19 01:01:58;;;;;;;19.43;18.13;;;19.50;1.00;;;;;;4989507;28;20574;-70
2023/06/19 01:04:26;;;;;;;18.43;17.13;;;19.50;1.00;;;;;;5022396;22;20419;-81
2023/06/19 01:06:58;;;;;;;18.27;16.90;;;19.50;1.00;;;;;;5024240;28;20977;-83
2023/06/19 01:09:30;;;;;;;17.90;16.60;;;19.50;1.00;;;;;;5009575;28;20449;-81
2023/06/19 01:12:02;;;;;;;18.40;16.90;;;19.50;1.00;;;;;;5010438;28;20466;-81
2023/06/19 01:14:36;;;;;;;18.50;16.93;;;19.50;1.00;;;;;;5007542;28;20942;-83
2023/06/19 01:17:06;;;;;;;17.47;16.30;;;19.50;1.00;;;;;;5009761;28;21233;-81
2023/06/19 01:19:34;;;;;;;18.93;17.53;;;19.50;1.00;;;;;;5014145;28;20464;-80
2023/06/19 01:22:05;;;;;;;17.90;16.60;;;19.40;1.00;;;;;;5010921;28;20465;-79
2023/06/19 01:24:32;;;;;;;18.70;17.33;;;19.30;1.00;;;;;;5009315;28;20462;-85
2023/06/19 01:27:00;;;;;;;19.57;17.97;;;19.40;1.00;;;;;;5010144;28;20481;-81
2023/06/19 01:29:27;;;;;;;17.33;16.03;;;19.20;1.00;;;;;;5007359;28;20470;-82
2023/06/19 01:32:00;;;;;;;18.47;17.07;;;19.20;1.00;;;;;;5010403;28;20935;-80
2023/06/19 01:34:30;;;;;;;17.97;16.67;;;19.20;1.00;;;;;;5011138;28;20451;-82
2023/06/19 01:36:58;;;;;;;17.27;15.97;;;19.20;1.00;;;;;;5019457;28;20853;-79
2023/06/19 01:39:27;;;;;;;18.97;17.57;;;19.10;1.00;;;;;;5011344;28;20454;-79
2023/06/19 01:41:58;;;;;;;19.00;17.60;;;19.10;1.00;;;;;;5012438;28;20933;-79
2023/06/19 01:44:25;;;;;;;18.67;17.27;;;19.10;1.00;;;;;;5010741;28;20469;-79
2023/06/19 01:46:53;;;;;;;18.43;16.90;;;19.00;1.00;;;;;;5009502;28;20473;-80
2023/06/19 01:49:20;;;;;;;18.13;16.83;;;19.00;1.00;;;;;;5008896;28;20544;-82
2023/06/19 01:51:48;;;;;;;20.03;18.47;;;19.00;1.00;;;;;;5010235;28;20456;-80
2023/06/19 01:54:15;;;;;;;18.73;17.20;;;18.90;1.00;;;;;;5019281;28;20476;-81
2023/06/19 01:56:44;;;;;;;19.37;17.73;;;19.00;1.00;;;;;;5009634;28;20867;-83
2023/06/19 01:59:11;;;;;;;19.63;18.17;;;19.00;1.00;;;;;;5021352;28;21342;-84
2023/06/19 02:01:38;;;;;;;19.80;18.20;;;19.00;1.00;;;;;;5008956;28;21039;-86
2023/06/19 02:04:06;;;;;;;18.90;17.40;;;19.00;1.00;;;;;;5009445;28;20471;-79
2023/06/19 02:06:34;;;;;;;18.43;17.13;;;19.00;1.00;;;;;;5016807;28;20585;-80
2023/06/19 02:09:01;;;;;;;18.10;16.90;;;19.10;1.00;;;;;;5011029;28;20523;-86
2023/06/19 02:11:28;;;;;;;19.13;17.67;;;19.10;1.00;;;;;;5008296;28;20450;-78
2023/06/19 02:13:58;;;;;;;19.03;17.67;;;19.10;1.00;;;;;;5010000;28;20476;-79
2023/06/19 02:16:25;;;;;;;19.10;17.60;;;19.20;1.00;;;;;;5013569;28;20484;-79
2023/06/19 02:18:52;;;;;;;18.47;17.10;;;19.20;1.00;;;;;;5011499;28;20947;-79
2023/06/19 02:21:19;;;;;;;18.00;16.70;;;19.20;1.00;;;;;;5008528;28;20534;-83
2023/06/19 02:23:46;;;;;;;17.97;16.67;;;19.20;1.00;;;;;;5012335;28;20586;-83
2023/06/19 02:26:13;;;;;;;18.60;17.30;;;19.20;1.00;;;;;;4999613;28;20482;-80
2023/06/19 02:28:40;;;;;;;19.80;18.40;;;19.20;1.00;;;;;;5009804;28;20473;-79
2023/06/19 02:31:11;;;;;;;19.23;17.73;;;19.10;1.00;;;;;;5010528;28;20468;-80
2023/06/19 02:33:38;;;;;;;20.07;18.17;;;19.10;1.00;;;;;;5004252;28;20463;-79
2023/06/19 02:36:06;;;;;;;21.70;19.67;;;19.00;1.00;;;;;;5006778;28;20468;-79
2023/06/19 02:38:33;;;;;;;21.07;19.17;;;19.00;1.00;;;;;;5013081;28;20463;-82
2023/06/19 02:41:01;;;;;;;17.90;16.60;;;18.90;1.00;;;;;;5010784;28;20470;-82
2023/06/19 02:43:28;;;;;;;21.27;19.50;;;19.00;1.00;;;;;;5009335;28;20465;-80
2023/06/19 02:45:55;;;;;;;20.63;19.23;;;19.10;1.00;;;;;;5009954;28;20480;-79
2023/06/19 02:48:24;;;;;;;20.00;18.43;;;19.10;1.00;;;;;;5010078;28;20519;-81
2023/06/19 02:50:51;;;;;;;18.90;17.50;;;19.10;1.00;;;;;;4999936;28;20891;-79
2023/06/19 02:53:18;;;;;;;19.90;18.50;;;19.10;1.00;;;;;;5007349;28;20476;-81
2023/06/19 02:55:45;;;;;;;21.33;19.40;;;19.00;1.00;;;;;;5009005;28;20468;-80
2023/06/19 02:58:12;;;;;;;20.67;19.17;;;18.90;1.00;;;;;;5004834;28;20919;-80
2023/06/19 03:00:39;;;;;;;20.43;18.80;;;18.90;1.00;;;;;;5010120;28;20484;-82
2023/06/19 03:03:06;;;;;;;23.20;21.40;;;18.90;1.00;;;;;;5007408;28;20466;-81
2023/06/19 03:05:35;;;;;;;19.43;18.00;;;19.00;1.00;;;;;;5008358;28;20486;-83
2023/06/19 03:08:01;;;;;;;20.37;18.87;;;18.90;1.00;;;;;;5004844;28;20473;-78
2023/06/19 03:10:28;;;;;;;19.50;18.00;;;18.80;1.00;;;;;;5002226;28;20475;-84
2023/06/19 03:13:03;;;;;;;20.33;18.93;;;18.80;1.00;;;;;;5008855;28;20991;-79
2023/06/19 03:15:30;;;;;;;20.07;18.57;;;18.80;1.00;;;;;;5008985;28;20460;-81
2023/06/19 03:17:57;;;;;;;19.73;18.40;;;18.80;1.00;;;;;;5013669;28;20502;-80
2023/06/19 03:20:24;;;;;;;20.60;19.10;;;18.80;1.00;;;;;;5017163;28;20460;-79
2023/06/19 03:22:52;;;;;;;20.87;19.23;;;18.80;1.00;;;;;;5017467;28;20456;-78
2023/06/19 03:25:22;;;;;;;19.97;18.57;;;18.70;1.00;;;;;;5013590;28;20546;-83
2023/06/19 03:27:49;;;;;;;22.73;20.83;;;18.80;1.00;;;;;;5009292;28;20460;-80
2023/06/19 03:30:18;;;;;;;21.67;20.07;;;18.80;1.00;;;;;;5018695;28;20471;-87
2023/06/19 03:32:45;;;;;;;21.77;20.07;;;18.80;1.00;;;;;;5025226;28;20461;-79
2023/06/19 03:35:12;;;;;;;21.70;20.20;;;18.80;1.00;;;;;;5036274;28;20465;-80
2023/06/19 03:37:40;;;;;;;23.67;21.70;;;18.90;1.00;;;;;;5034178;28;20432;-81
2023/06/19 03:40:13;;;;;;;23.77;21.97;;;18.90;1.00;;;;;;5030565;28;20420;-79
2023/06/19 03:42:40;;;;;;;22.33;20.63;;;19.00;1.00;;;;;;5035687;28;20472;-78
2023/06/19 03:45:08;;;;;;;22.33;20.67;;;19.10;1.00;;;;;;5034697;28;20468;-79
2023/06/19 03:47:35;;;;;;;21.20;19.80;;;19.20;1.00;;;;;;5033816;28;20553;-78
2023/06/19 03:50:03;;;;;;;22.80;21.10;;;19.30;1.00;;;;;;5021221;28;20462;-82
2023/06/19 03:52:29;;;;;;;20.53;18.90;;;19.30;1.00;;;;;;5018973;28;21685;-79
2023/06/19 03:54:56;;;;;;;19.73;18.33;;;19.40;1.00;;;;;;5015110;28;20480;-81
2023/06/19 03:57:25;;;;;;;20.93;19.27;;;19.50;1.00;;;;;;5015448;28;20453;-79
2023/06/19 03:59:53;;;;;;;20.83;19.43;;;19.50;1.00;;;;;;5008985;28;20517;-87
2023/06/19 04:08:59;;;;;;;20.27;18.67;;;19.60;1.00;;;;;;4966724;28;20448;-75
2023/06/19 04:11:26;;;;;;;21.53;19.90;;;19.60;1.00;;;;;;4967381;28;20495;-75
2023/06/19 04:13:54;;;;;;;21.23;19.57;;;19.60;1.00;;;;;;4964766;28;20456;-76
2023/06/19 04:16:21;;;;;;;22.70;20.90;;;19.50;1.00;;;;;;4969455;28;20500;-76
2023/06/19 04:18:48;;;;;;;21.27;19.77;;;19.50;1.00;;;;;;4970397;28;20468;-76
2023/06/19 04:21:15;;;;;;;22.47;20.77;;;19.50;1.00;;;;;;4971781;28;20459;-77
2023/06/19 04:23:42;;;;;;;23.37;21.50;;;19.60;1.00;;;;;;4968153;28;20987;-76
2023/06/19 04:26:09;;;;;;;22.23;20.63;;;19.70;1.00;;;;;;4965267;28;20569;-77
2023/06/19 04:28:36;;;;;;;44.63;41.43;;;19.80;1.00;;;;;;4965882;28;21019;-77
2023/06/19 04:31:05;;;;;;;20.87;19.37;;;19.80;1.00;;;;;;4967736;28;20463;-74
2023/06/19 04:33:32;;;;;;;22.50;20.80;;;19.80;1.00;;;;;;4965859;28;20472;-77
2023/06/19 04:36:00;;;;;;;21.73;20.07;;;19.90;1.00;;;;;;4967086;28;20483;-75
2023/06/19 04:38:27;;;;;;;22.30;20.70;;;20.00;1.00;;;;;;4970249;28;20452;-75
2023/06/19 04:40:55;;;;;;;22.30;20.50;;;20.00;1.00;;;;;;4966696;28;20501;-75
2023/06/19 04:43:24;;;;;;;21.97;20.30;;;20.00;1.00;;;;;;4947606;28;20483;-76
2023/06/19 04:45:53;;;;;;;23.40;21.60;;;20.10;1.00;;;;;;4969018;28;20566;-76
2023/06/19 04:48:25;;;;;;;23.17;21.37;;;20.10;1.00;;;;;;4956107;28;20553;-78
2023/06/19 04:50:55;;;;;;;21.53;19.93;;;20.00;1.00;;;;;;4969130;28;20464;-75
2023/06/19 04:53:26;;;;;;;23.70;21.90;;;20.10;1.00;;;;;;4967064;28;20461;-74
2023/06/19 04:55:55;;;;;;;22.57;20.93;;;20.10;1.00;;;;;;4968184;28;20503;-76
2023/06/19 04:58:23;;;;;;;22.40;20.70;;;20.10;1.00;;;;;;4967998;28;20467;-79
2023/06/19 05:00:52;;;;;;;22.77;21.10;;;20.10;1.00;;;;;;4965314;28;20859;-77
2023/06/19 05:03:19;;;;;;;24.13;21.93;;;20.20;1.00;;;;;;4965023;28;20894;-75
2023/06/19 05:05:48;;;;;;;22.53;20.73;;;20.20;1.00;;;;;;4969175;28;20968;-74
2023/06/19 05:08:15;;;;;;;21.70;20.10;;;20.20;1.00;;;;;;4961461;28;20467;-75
2023/06/19 05:10:42;;;;;;;22.13;20.43;;;20.20;1.00;;;;;;4967727;28;20484;-76
2023/06/19 05:13:09;;;;;;;29.40;26.97;;;20.10;1.00;;;;;;4965600;28;20471;-77
2023/06/19 05:15:36;;;;;;;22.70;20.97;;;20.10;1.00;;;;;;4967031;28;20495;-77
2023/06/19 05:18:11;;;;;;;23.07;21.50;;;20.10;1.00;;;;;;4966035;28;20492;-76
2023/06/19 05:20:42;;;;;;;23.47;21.73;;;20.10;1.00;;;;;;4967142;28;20938;-76
2023/06/19 05:23:13;;;;;;;24.00;22.07;;;20.00;1.00;;;;;;4960578;28;20563;-76
2023/06/19 05:25:40;;;;;;;23.83;22.13;;;20.10;1.00;;;;;;4960277;28;20501;-76
2023/06/19 05:28:07;;;;;;;22.83;21.23;;;20.00;1.00;;;;;;4961266;28;20501;-77
2023/06/19 05:30:34;;;;;;;24.13;22.50;;;20.00;1.00;;;;;;4968960;28;20496;-76
2023/06/19 05:33:02;;;;;;;24.40;22.70;;;20.00;1.00;;;;;;4968221;28;20471;-77
2023/06/19 05:35:30;;;;;;;24.33;22.20;;;20.00;1.00;;;;;;4967486;28;20964;-77
2023/06/19 05:37:57;;;;;;;25.67;23.47;;;20.00;1.00;;;;;;4970923;28;20530;-77
2023/06/19 05:40:26;;;;;;;25.00;23.10;;;20.00;1.00;;;;;;4966466;28;20436;-73
2023/06/19 05:42:55;;;;;;;23.87;22.07;;;20.10;1.00;;;;;;4969239;28;20468;-73
2023/06/19 05:45:22;;;;;;;24.63;22.60;;;20.20;1.00;;;;;;4968013;28;20488;-72
2023/06/19 05:47:49;;;;;;;24.00;22.20;;;20.30;1.00;;;;;;4966646;28;20463;-73
2023/06/19 05:50:16;;;;;;;24.33;22.13;;;20.30;1.00;;;;;;4965834;28;20543;-75
2023/06/19 05:52:45;;;;;;;23.53;21.83;;;20.50;1.00;;;;;;4964842;28;20571;-73
2023/06/19 05:55:13;;;;;;;22.70;20.80;;;20.60;1.00;;;;;;4963564;28;20890;-73
2023/06/19 05:57:41;;;;;;;24.57;22.37;;;20.60;1.00;;;;;;4965501;28;20576;-75
2023/06/19 06:00:13;;;;;;;25.23;23.13;;;20.70;1.00;;;;;;4962816;28;20500;-73
2023/06/19 06:02:40;;;;;;;25.27;23.07;;;20.80;1.00;;;;;;4966551;28;20468;-73
2023/06/19 06:05:09;;;;;;;25.10;23.10;;;20.80;1.00;;;;;;4965578;28;20495;-74
2023/06/19 06:07:37;;;;;;;25.37;23.27;;;20.90;1.00;;;;;;4965048;28;20557;-74
2023/06/19 06:10:05;;;;;;;24.33;22.40;;;21.00;1.00;;;;;;4965450;28;20477;-75
2023/06/19 06:12:35;;;;;;;23.60;21.90;;;21.10;1.00;;;;;;4967682;28;20493;-74
2023/06/19 06:15:05;;;;;;;24.50;22.60;;;21.10;1.00;;;;;;4966561;28;20955;-73
2023/06/19 06:17:32;;;;;;;23.50;21.60;;;21.30;1.00;;;;;;4963144;28;20467;-73
2023/06/19 06:19:59;;;;;;;23.87;22.00;;;21.20;1.00;;;;;;4966039;28;20483;-73
2023/06/19 06:22:26;;;;;;;24.30;22.20;;;21.10;1.00;;;;;;4952493;28;20551;-73
2023/06/19 06:24:54;;;;;;;24.87;22.97;;;21.10;1.00;;;;;;4964782;28;20477;-73
2023/06/19 06:27:21;;;;;;;22.53;20.93;;;21.10;1.00;;;;;;4961035;28;20511;-73
2023/06/19 06:29:48;;;;;;;23.73;21.80;;;21.20;1.00;;;;;;4956327;28;20469;-74
2023/06/19 06:32:17;;;;;;;23.80;22.10;;;21.20;1.00;;;;;;4961459;28;20879;-73
2023/06/19 06:34:44;;;;;;;23.97;22.17;;;21.30;1.00;;;;;;4962105;28;20945;-72
2023/06/19 06:37:11;;;;;;;25.73;23.93;;;21.30;1.00;;;;;;4966066;28;21281;-73
2023/06/19 06:39:38;;;;;;;24.20;22.47;;;21.40;1.00;;;;;;4946975;28;22879;-74
2023/06/19 06:42:06;;;;;;;22.50;20.90;;;21.40;1.00;;;;;;4961761;28;20469;-74
2023/06/19 06:44:33;;;;;;;24.30;22.30;;;21.40;1.00;;;;;;4964730;28;20560;-76
2023/06/19 06:47:01;;;;;;;22.83;21.00;;;21.40;1.00;;;;;;4969308;28;20470;-74
2023/06/19 06:49:29;;;;;;;23.33;21.53;;;21.50;1.00;;;;;;4955554;28;20919;-74
2023/06/19 06:51:56;;;;;;;24.97;22.77;;;21.60;1.00;;;;;;4967574;28;20527;-75
2023/06/19 06:54:23;;;;;;;24.27;22.17;;;21.60;1.00;;;;;;4964455;28;20534;-76
2023/06/19 06:56:52;;;;;;;24.17;22.27;;;21.80;1.00;;;;;;4953983;28;20529;-74
2023/06/19 06:59:19;;;;;;;22.97;21.30;;;21.90;1.00;;;;;;4965317;28;20856;-73
2023/06/19 07:01:46;;;;;;;24.17;22.17;;;22.00;1.00;;;;;;4962224;28;20566;-74
2023/06/19 07:04:13;;;;;;;23.40;21.57;;;22.00;1.00;;;;;;4964002;28;20565;-74
2023/06/19 07:06:42;;;;;;;22.90;21.13;;;22.00;1.00;;;;;;4963278;28;20527;-73
2023/06/19 07:09:09;;;;;;;23.73;21.93;;;22.10;1.00;;;;;;4961038;28;20470;-75
2023/06/19 07:11:36;;;;;;;23.10;21.20;;;22.20;1.00;;;;;;4964005;28;20467;-73
2023/06/19 07:14:04;;;;;;;22.40;20.50;;;22.30;1.00;;;;;;4962027;28;20608;-74
2023/06/19 07:16:31;;;;;;;24.10;22.20;;;22.30;1.00;;;;;;4960611;28;20447;-77
2023/06/19 07:18:58;;;;;;;21.93;20.40;;;22.50;1.00;;;;;;4965850;28;20974;-76
2023/06/19 07:21:25;;;;;;;22.33;20.63;;;22.50;1.00;;;;;;4967990;28;20496;-77
2023/06/19 07:23:53;;;;;;;23.70;21.30;;;22.70;1.00;;;;;;4967618;28;20496;-79
2023/06/19 07:26:20;;;;;;;21.33;19.73;;;22.80;1.00;;;;;;4972238;28;20564;-77
2023/06/19 07:28:47;;;;;;;22.30;20.50;;;23.00;1.00;;;;;;4967846;28;20457;-77
2023/06/19 07:31:14;;;;;;;23.37;21.47;;;23.00;1.00;;;;;;4964385;28;21023;-78
2023/06/19 07:33:41;;;;;;;22.87;20.97;;;23.00;1.00;;;;;;4962741;28;20487;-75
2023/06/19 07:36:13;;;;;;;22.93;21.13;;;23.10;1.00;;;;;;4967794;28;20530;-76
2023/06/19 07:38:40;;;;;;;22.13;20.23;;;23.30;1.00;;;;;;4965848;28;20470;-75
2023/06/19 07:41:09;;;;;;;20.43;18.93;;;23.30;1.00;;;;;;4959823;28;20496;-76
2023/06/19 07:43:37;;;;;;;21.40;19.90;;;23.50;1.00;;;;;;4965713;28;20473;-77
2023/06/19 07:46:04;;;;;;;20.97;19.37;;;23.80;1.00;;;;;;4962189;28;21052;-77
2023/06/19 07:48:31;;;;;;;21.23;19.63;;;23.90;1.00;;;;;;4962466;28;20551;-75
2023/06/19 07:50:59;;;;;;;21.87;20.17;;;23.80;1.00;;;;;;4947540;28;21017;-73
2023/06/19 07:53:27;;;;;;;20.63;18.93;;;23.80;1.00;;;;;;4961309;28;20466;-76
2023/06/19 07:55:54;;;;;;;21.40;19.80;;;24.10;1.00;;;;;;4962571;28;20440;-76
2023/06/19 07:58:22;;;;;;;19.57;18.20;;;24.20;1.00;;;;;;4959956;28;20528;-75
2023/06/19 08:00:49;;;;;;;18.87;17.50;;;24.40;1.00;;;;;;4961200;28;20456;-75
2023/06/19 08:03:17;;;;;;;19.30;17.80;;;24.40;1.00;;;;;;4966530;28;21068;-76
2023/06/19 08:05:44;;;;;;;21.10;19.40;;;24.50;1.00;;;;;;4970250;28;20497;-75
2023/06/19 08:08:13;;;;;;;21.00;19.17;;;24.60;1.00;;;;;;4967957;28;20915;-77
2023/06/19 08:10:41;;;;;;;19.87;18.30;;;24.70;1.00;;;;;;4966489;28;20470;-77
2023/06/19 08:13:08;;;;;;;19.73;18.13;;;24.70;1.00;;;;;;4966970;28;20508;-76
2023/06/19 08:15:36;;;;;;;29.50;27.10;;;24.80;1.00;;;;;;4970085;28;20484;-76
2023/06/19 08:18:03;;;;;;;18.53;17.13;;;24.90;1.00;;;;;;4968668;28;20461;-76
2023/06/19 08:20:30;;;;;;;22.40;20.50;;;25.00;1.00;;;;;;4964726;28;20501;-75
2023/06/19 08:22:57;;;;;;;19.80;18.30;;;25.00;1.00;;;;;;4970530;28;20573;-75
2023/06/19 08:25:24;;;;;;;18.60;17.17;;;25.10;1.00;;;;;;4967542;28;20454;-76
2023/06/19 08:27:51;;;;;;;19.63;18.03;;;25.30;1.00;;;;;;4967812;28;20815;-75
2023/06/19 08:30:18;;;;;;;20.10;18.40;;;25.50;1.00;;;;;;4962090;28;20537;-75
2023/06/19 08:32:48;;;;;;;20.40;18.63;;;25.50;1.00;;;;;;4962270;28;20465;-75
2023/06/19 08:35:15;;;;;;;19.23;17.83;;;25.50;1.00;;;;;;4956579;28;20525;-75
2023/06/19 08:37:42;;;;;;;20.10;18.60;;;25.70;1.00;;;;;;4963197;28;20486;-73
2023/06/19 08:40:11;;;;;;;18.43;17.20;;;25.60;1.00;;;;;;4957889;28;20469;-73
2023/06/19 08:42:39;;;;;;;18.63;17.30;;;25.60;1.00;;;;;;4969376;28;20485;-74
2023/06/19 08:45:08;;;;;;;18.53;17.07;;;25.50;1.00;;;;;;4966709;28;20481;-74
2023/06/19 08:47:35;;;;;;;19.07;17.77;;;25.50;1.00;;;;;;4967512;28;20564;-74
2023/06/19 08:50:04;;;;;;;18.63;17.43;;;25.50;1.00;;;;;;4968760;28;20553;-74
2023/06/19 08:52:32;;;;;;;18.90;17.40;;;25.50;1.00;;;;;;4965417;28;20469;-75
2023/06/19 08:54:59;;;;;;;19.63;18.20;;;25.60;1.00;;;;;;4962707;28;20836;-75
2023/06/19 08:57:35;;;;;;;19.50;18.00;;;25.60;1.00;;;;;;4965122;28;20524;-74
2023/06/19 09:00:03;;;;;;;18.80;17.30;;;25.50;1.00;;;;;;4964730;28;20470;-75
2023/06/19 09:02:38;;;;;;;19.40;17.90;;;25.60;1.00;;;;;;4967433;28;20474;-78
2023/06/19 09:05:15;;;;;;;20.07;18.27;;;25.50;1.00;;;;;;4970909;28;20464;-79
2023/06/19 09:07:43;;;;;;;19.77;18.37;;;25.60;1.00;;;;;;4964918;28;20485;-75
2023/06/19 09:10:17;;;;;;;19.43;18.13;;;25.70;1.00;;;;;;4962306;28;20487;-75
2023/06/19 09:12:44;;;;;;;19.50;18.10;;;25.80;1.00;;;;;;4963459;28;20509;-75
2023/06/19 09:15:15;;;;;;;20.17;18.80;;;25.90;1.00;;;;;;4964685;28;20697;-78
2023/06/19 09:17:42;;;;;;;19.00;17.60;;;25.90;1.00;;;;;;4965959;28;21551;-77
2023/06/19 09:20:11;;;;;;;21.17;19.47;;;26.10;1.00;;;;;;4970813;28;20941;-76
2023/06/19 09:22:40;;;;;;;19.07;17.67;;;26.20;1.00;;;;;;4967012;28;20482;-74
2023/06/19 09:25:12;;;;;;;20.23;18.60;;;26.20;1.00;;;;;;4966038;28;20494;-75
2023/06/19 09:27:38;;;;;;;20.23;18.53;;;26.30;1.00;;;;;;4965522;28;20475;-77
2023/06/19 09:30:07;;;;;;;20.03;18.63;;;26.30;1.00;;;;;;4968328;28;20526;-76
2023/06/19 09:32:35;;;;;;;19.20;17.90;;;26.20;1.00;;;;;;4969344;28;20479;-74
2023/06/19 09:35:04;;;;;;;19.40;17.90;;;26.40;1.00;;;;;;4968507;28;20791;-74
2023/06/19 09:37:31;;;;;;;20.50;19.07;;;26.50;1.00;;;;;;4968449;28;20459;-76
2023/06/19 09:40:06;;;;;;;19.70;18.30;;;26.60;1.00;;;;;;4967360;28;20468;-73
2023/06/19 09:42:37;;;;;;;19.87;18.07;;;26.60;1.00;;;;;;4968393;28;20630;-75
2023/06/19 09:45:06;;;;;;;20.57;18.60;;;26.60;1.00;;;;;;4968888;28;20505;-74
2023/06/19 09:47:37;;;;;;;27.30;25.27;;;26.60;1.00;;;;;;4950359;28;23151;-73
2023/06/19 09:50:05;;;;;;;18.97;17.57;;;26.50;1.00;;;;;;4967593;28;20415;-73
2023/06/19 09:52:33;;;;;;;19.10;17.70;;;26.50;1.00;;;;;;4970091;28;20474;-73
2023/06/19 09:55:04;;;;;;;19.20;17.80;;;26.60;1.00;;;;;;4968233;28;20524;-74
2023/06/19 09:57:31;;;;;;;17.97;16.67;;;26.70;1.00;;;;;;4965435;28;21039;-75
2023/06/19 10:00:12;;;;;;;18.20;16.97;;;26.90;1.00;;;;;;4965615;28;20543;-76
2023/06/19 10:02:40;;;;;;;58.17;52.40;;;26.90;1.00;;;;;;4965070;28;20604;-75
2023/06/19 10:05:12;;;;;;;19.30;18.00;;;27.00;1.00;;;;;;4966317;28;20556;-75
2023/06/19 10:07:41;;;;;;;18.50;17.10;;;26.90;1.00;;;;;;4965029;28;20912;-74
2023/06/19 10:10:12;;;;;;;19.57;18.17;;;26.90;1.00;;;;;;4963645;28;20433;-75
2023/06/19 10:12:41;;;;;;;18.63;17.20;;;26.80;1.00;;;;;;4962729;28;21282;-74
2023/06/19 10:15:17;;;;;;;20.07;18.50;;;26.70;1.00;;;;;;4964770;28;20471;-75
2023/06/19 10:17:47;;;;;;;20.17;18.50;;;26.60;1.00;;;;;;4965991;28;20470;-76
2023/06/19 10:20:27;;;;;;;19.67;18.17;;;26.70;1.00;;;;;;4967293;28;20548;-74
2023/06/19 10:22:58;;;;;;;21.53;19.83;;;26.40;1.00;;;;;;4962376;28;20544;-73
2023/06/19 10:25:31;;;;;;;19.90;18.20;;;26.60;1.00;;;;;;4964620;28;20469;-77
2023/06/19 10:27:58;;;;;;;20.30;18.67;;;26.90;1.00;;;;;;4967958;28;20458;-77
2023/06/19 10:30:26;;;;;;;20.10;18.70;;;27.00;1.00;;;;;;4965692;28;20552;-78
2023/06/19 10:32:53;;;;;;;19.93;18.57;;;27.00;1.00;;;;;;4969280;28;20521;-76
2023/06/19 10:35:23;;;;;;;20.60;18.80;;;27.10;1.00;;;;;;4962968;28;22540;-78
2023/06/19 10:37:51;;;;;;;20.20;18.60;;;27.00;1.00;;;;;;4967653;28;20568;-78
2023/06/19 10:40:18;;;;;;;20.30;18.77;;;27.00;1.00;;;;;;4962880;28;20662;-76
2023/06/19 10:42:47;;;;;;;21.30;19.70;;;27.10;1.00;;;;;;4965257;28;20582;-77
2023/06/19 10:45:16;;;;;;;19.97;18.07;;;27.30;1.00;;;;;;4954147;28;20463;-76
2023/06/19 10:47:44;;;;;;;18.93;17.10;;;27.30;1.00;;;;;;4962280;28;20843;-75
2023/06/19 10:50:12;;;;;;;19.73;18.33;;;27.10;1.00;;;;;;4964757;28;21043;-77
2023/06/19 10:52:44;;;;;;;20.73;19.17;;;27.00;1.00;;;;;;4968710;28;21442;-76
2023/06/19 10:55:12;;;;;;;20.17;18.77;;;26.90;1.00;;;;;;4967627;28;20964;-76
2023/06/19 10:57:39;;;;;;;18.60;17.13;;;26.80;1.00;;;;;;4964089;28;20514;-75
2023/06/19 11:00:12;;;;;;;18.53;17.30;;;26.90;1.00;;;;;;4967843;28;20871;-77
2023/06/19 11:02:43;;;;;;;18.97;17.00;;;27.10;1.00;;;;;;4969087;28;21086;-77
2023/06/19 11:05:10;;;;;;;17.37;16.17;;;27.50;1.00;;;;;;4960074;28;20858;-76
2023/06/19 11:07:37;;;;;;;18.57;17.13;;;28.20;1.00;;;;;;4961962;28;20470;-76
2023/06/19 11:10:06;;;;;;;17.27;15.97;;;29.40;1.00;;;;;;4965317;28;21233;-75
2023/06/19 11:12:34;;;;;;;16.10;15.00;;;30.30;1.00;;;;;;4967965;28;21302;-77
2023/06/19 11:15:10;;;;;;;16.00;14.90;;;30.30;1.00;;;;;;4964471;28;20467;-77
2023/06/19 11:17:37;;;;;;;16.83;15.53;;;30.50;1.00;;;;;;4967677;28;20475;-79
2023/06/19 11:20:11;;;;;;;16.03;14.97;;;31.00;1.00;;;;;;4966717;28;20934;-76
2023/06/19 11:22:40;;;;;;;17.20;15.77;;;30.80;1.00;;;;;;4973610;28;20602;-78
2023/06/19 11:25:09;;;;;;;16.53;15.23;;;30.50;1.00;;;;;;4953588;28;20494;-78
2023/06/19 11:27:39;;;;;;;15.07;13.90;;;30.10;1.00;;;;;;4973456;28;20987;-78
2023/06/19 11:30:09;;;;;;;16.93;15.50;;;29.40;1.00;;;;;;4974821;28;20545;-79
2023/06/19 11:32:41;;;;;;;15.33;14.10;;;29.50;1.00;;;;;;4964698;28;20549;-78
2023/06/19 11:35:11;;;;;;;17.40;16.13;;;29.50;1.00;;;;;;4968021;28;20467;-75
2023/06/19 11:37:40;;;;;;;16.37;15.07;;;29.50;1.00;;;;;;4959035;28;20446;-76
2023/06/19 11:40:12;;;;;;;17.07;15.87;;;29.50;1.00;;;;;;4967689;28;20594;-75
2023/06/19 11:42:48;;;;;;;17.13;15.73;;;29.30;1.00;;;;;;4968855;28;20585;-76
2023/06/19 11:45:16;;;;;;;16.27;15.17;;;29.00;1.00;;;;;;4973186;28;20537;-77
2023/06/19 11:47:46;;;;;;;17.20;15.67;;;28.80;1.00;;;;;;4970831;28;20899;-75
2023/06/19 11:50:15;;;;;;;16.20;15.00;;;28.60;1.00;;;;;;4969589;28;20481;-76
2023/06/19 11:52:44;;;;;;;16.50;15.40;;;28.80;1.00;;;;;;4971514;28;21041;-76
2023/06/19 11:55:17;;;;;;;16.37;15.23;;;29.40;1.00;;;;;;4969614;28;20550;-77
2023/06/19 11:57:44;;;;;;;15.87;14.67;;;30.10;1.00;;;;;;4975808;28;20475;-77
2023/06/19 12:00:16;;;;;;;16.23;15.13;;;30.80;1.00;;;;;;4967374;28;20482;-76
2023/06/19 12:02:48;;;;;;;14.33;13.33;;;31.30;1.00;;;;;;4969621;28;20502;-77
2023/06/19 12:05:15;;;;;;;17.33;16.13;;;31.70;1.00;;;;;;4976008;28;20512;-76
2023/06/19 12:07:42;;;;;;;16.50;15.20;;;31.90;1.00;;;;;;4969071;28;20616;-77
2023/06/19 12:10:11;;;;;;;16.70;15.47;;;32.40;1.00;;;;;;4967248;28;20472;-76
2023/06/19 12:12:38;;;;;;;18.00;16.80;;;33.30;1.00;;;;;;4972308;28;20527;-77
2023/06/19 12:15:07;;;;;;;16.10;14.90;;;34.60;1.00;;;;;;4965766;28;20959;-76
2023/06/19 12:17:34;;;;;;;15.50;14.50;;;35.00;1.00;;;;;;4972466;28;21132;-77
2023/06/19 12:20:07;;;;;;;14.97;13.97;;;34.50;1.00;;;;;;4971826;28;20494;-77
2023/06/19 12:22:34;;;;;;;14.90;14.00;;;34.20;1.00;;;;;;4970653;28;20482;-77
2023/06/19 12:25:02;;;;;;;15.47;14.40;;;33.90;1.00;;;;;;4972297;28;20476;-77
2023/06/19 12:27:29;;;;;;;15.43;14.30;;;33.60;1.00;;;;;;4968784;28;20958;-77
2023/06/19 12:29:56;;;;;;;15.20;14.20;;;33.50;1.00;;;;;;4967842;28;20463;-77
2023/06/19 12:32:23;;;;;;;14.43;13.30;;;33.20;1.00;;;;;;4967465;28;20541;-77
2023/06/19 12:34:53;;;;;;;15.77;14.60;;;33.20;1.00;;;;;;4969181;28;20589;-76
2023/06/19 12:37:22;;;;;;;14.03;13.20;;;33.70;1.00;;;;;;4972795;28;20463;-77
2023/06/19 12:39:51;;;;;;;14.43;13.30;;;35.00;1.00;;;;;;4967866;28;21066;-75
2023/06/19 12:42:18;;;;;;;14.93;13.93;;;36.10;1.00;;;;;;4971252;28;20471;-75
2023/06/19 12:44:45;;;;;;;12.70;11.90;;;37.30;1.00;;;;;;4971224;28;20712;-76
2023/06/19 12:47:12;;;;;;;13.67;12.77;;;37.40;1.00;;;;;;4969008;28;20504;-78